Terminal Aerodrome Forecast
Issued by NWS

Home | Current Version | Previous Version | Text Only | Print | Product List | Glossary On
Versions: 1 2 3 4 5 6 7 8 9 10 11 12 13 14 15 16 17 18 19 20 21 22 23
000
FTUS43 KLSX 150500
TAFUIN
TAF
KUIN 150530Z 1506/1606 16006KT P6SM BKN060
     FM150800 14005KT P6SM -SHRA VCTS BKN050CB
     FM151200 18006KT 5SM -TSRA BKN035CB
     FM151800 29011KT P6SM VCSH SCT015 BKN025
     FM152100 36012KT P6SM BKN015=

USA.gov is the U.S. government's official web portal to all federal, state and local government web resources and services.